sensor_id;sensor_type;location;lat;lon;timestamp;P1;durP1;ratioP1;P2;durP2;ratioP2
53915;SDS011;39827;49.652;18.770;2023-04-01T00:01:18;822.20;;;760.67;;
53915;SDS011;39827;49.652;18.770;2023-04-01T00:03:44;837.45;;;773.97;;
53915;SDS011;39827;49.652;18.770;2023-04-01T00:06:13;801.85;;;742.38;;
53915;SDS011;39827;49.652;18.770;2023-04-01T00:08:40;813.97;;;753.65;;
53915;SDS011;39827;49.652;18.770;2023-04-01T00:11:06;779.20;;;720.60;;
53915;SDS011;39827;49.652;18.770;2023-04-01T00:13:31;792.40;;;733.38;;
53915;SDS011;39827;49.652;18.770;2023-04-01T00:15:57;806.10;;;746.13;;
53915;SDS011;39827;49.652;18.770;2023-04-01T00:18:23;748.95;;;692.88;;
53915;SDS011;39827;49.652;18.770;2023-04-01T00:20:49;810.45;;;748.92;;
53915;SDS011;39827;49.652;18.770;2023-04-01T00:23:16;769.38;;;711.80;;
53915;SDS011;39827;49.652;18.770;2023-04-01T00:25:44;752.72;;;696.53;;
53915;SDS011;39827;49.652;18.770;2023-04-01T00:28:10;781.55;;;723.67;;
53915;SDS011;39827;49.652;18.770;2023-04-01T00:30:36;823.75;;;761.42;;
53915;SDS011;39827;49.652;18.770;2023-04-01T00:33:02;863.78;;;796.78;;
53915;SDS011;39827;49.652;18.770;2023-04-01T00:35:28;854.30;;;788.33;;
53915;SDS011;39827;49.652;18.770;2023-04-01T00:37:53;708.15;;;655.80;;
53915;SDS011;39827;49.652;18.770;2023-04-01T00:40:27;795.47;;;735.42;;
53915;SDS011;39827;49.652;18.770;2023-04-01T00:42:58;761.10;;;704.72;;
53915;SDS011;39827;49.652;18.770;2023-04-01T00:45:34;744.42;;;688.63;;
53915;SDS011;39827;49.652;18.770;2023-04-01T00:48:02;824.22;;;760.83;;
53915;SDS011;39827;49.652;18.770;2023-04-01T00:50:32;912.13;;;836.28;;
53915;SDS011;39827;49.652;18.770;2023-04-01T00:53:00;916.78;;;842.65;;
53915;SDS011;39827;49.652;18.770;2023-04-01T00:55:26;829.22;;;765.95;;
53915;SDS011;39827;49.652;18.770;2023-04-01T00:57:54;854.17;;;787.55;;
53915;SDS011;39827;49.652;18.770;2023-04-01T01:00:23;784.58;;;721.50;;
53915;SDS011;39827;49.652;18.770;2023-04-01T01:02:49;817.88;;;755.13;;
53915;SDS011;39827;49.652;18.770;2023-04-01T01:05:16;813.08;;;753.28;;
53915;SDS011;39827;49.652;18.770;2023-04-01T01:07:46;810.20;;;749.30;;
53915;SDS011;39827;49.652;18.770;2023-04-01T01:10:20;761.60;;;704.55;;
53915;SDS011;39827;49.652;18.770;2023-04-01T01:27:03;872.60;;;807.50;;
53915;SDS011;39827;49.652;18.770;2023-04-01T01:29:34;853.47;;;789.00;;
53915;SDS011;39827;49.652;18.770;2023-04-01T01:37:09;753.95;;;701.33;;
53915;SDS011;39827;49.652;18.770;2023-04-01T01:39:38;754.00;;;701.08;;
53915;SDS011;39827;49.652;18.770;2023-04-01T01:42:07;822.78;;;762.17;;
53915;SDS011;39827;49.652;18.770;2023-04-01T01:44:36;812.60;;;753.72;;
53915;SDS011;39827;49.652;18.770;2023-04-01T01:47:04;778.75;;;723.75;;
53915;SDS011;39827;49.652;18.770;2023-04-01T01:49:30;756.67;;;703.28;;
53915;SDS011;39827;49.652;18.770;2023-04-01T01:51:58;723.83;;;672.67;;
53915;SDS011;39827;49.652;18.770;2023-04-01T01:54:24;760.78;;;707.55;;
53915;SDS011;39827;49.652;18.770;2023-04-01T01:56:51;747.28;;;694.65;;
53915;SDS011;39827;49.652;18.770;2023-04-01T01:59:26;769.80;;;715.45;;
53915;SDS011;39827;49.652;18.770;2023-04-01T02:01:54;839.40;;;777.90;;
53915;SDS011;39827;49.652;18.770;2023-04-01T02:04:23;825.47;;;766.55;;
53915;SDS011;39827;49.652;18.770;2023-04-01T02:06:58;871.30;;;804.55;;
53915;SDS011;39827;49.652;18.770;2023-04-01T02:09:27;875.10;;;808.40;;
53915;SDS011;39827;49.652;18.770;2023-04-01T02:11:57;867.22;;;800.50;;
53915;SDS011;39827;49.652;18.770;2023-04-01T02:17:18;856.38;;;792.05;;
53915;SDS011;39827;49.652;18.770;2023-04-01T02:19:47;856.85;;;793.80;;
53915;SDS011;39827;49.652;18.770;2023-04-01T02:22:14;764.03;;;710.05;;
53915;SDS011;39827;49.652;18.770;2023-04-01T02:24:44;740.35;;;688.08;;
53915;SDS011;39827;49.652;18.770;2023-04-01T02:27:10;802.28;;;744.08;;
53915;SDS011;39827;49.652;18.770;2023-04-01T02:29:36;764.53;;;710.15;;
53915;SDS011;39827;49.652;18.770;2023-04-01T02:32:02;768.30;;;713.75;;
53915;SDS011;39827;49.652;18.770;2023-04-01T02:34:28;753.17;;;699.95;;
53915;SDS011;39827;49.652;18.770;2023-04-01T02:36:54;748.20;;;694.55;;
53915;SDS011;39827;49.652;18.770;2023-04-01T02:39:21;824.35;;;764.47;;
53915;SDS011;39827;49.652;18.770;2023-04-01T02:41:47;724.92;;;673.30;;
53915;SDS011;39827;49.652;18.770;2023-04-01T02:44:13;735.72;;;683.88;;
53915;SDS011;39827;49.652;18.770;2023-04-01T02:46:40;824.30;;;764.90;;
53915;SDS011;39827;49.652;18.770;2023-04-01T02:49:06;853.70;;;790.25;;
53915;SDS011;39827;49.652;18.770;2023-04-01T02:51:31;865.80;;;801.58;;
53915;SDS011;39827;49.652;18.770;2023-04-01T02:53:57;836.28;;;774.63;;
53915;SDS011;39827;49.652;18.770;2023-04-01T02:56:23;802.15;;;743.97;;
53915;SDS011;39827;49.652;18.770;2023-04-01T02:58:48;772.80;;;717.97;;
53915;SDS011;39827;49.652;18.770;2023-04-01T03:01:14;750.63;;;697.35;;
53915;SDS011;39827;49.652;18.770;2023-04-01T03:03:39;715.13;;;664.20;;
53915;SDS011;39827;49.652;18.770;2023-04-01T03:06:06;771.10;;;715.83;;
53915;SDS011;39827;49.652;18.770;2023-04-01T03:08:33;776.08;;;721.05;;
53915;SDS011;39827;49.652;18.770;2023-04-01T03:10:58;796.58;;;738.47;;
53915;SDS011;39827;49.652;18.770;2023-04-01T03:13:23;794.33;;;736.75;;
53915;SDS011;39827;49.652;18.770;2023-04-01T03:15:49;820.53;;;760.03;;
53915;SDS011;39827;49.652;18.770;2023-04-01T03:18:14;714.10;;;660.92;;
53915;SDS011;39827;49.652;18.770;2023-04-01T03:20:40;673.33;;;623.30;;
53915;SDS011;39827;49.652;18.770;2023-04-01T03:23:05;760.25;;;702.55;;
53915;SDS011;39827;49.652;18.770;2023-04-01T03:25:32;759.35;;;701.78;;
53915;SDS011;39827;49.652;18.770;2023-04-01T03:27:57;688.58;;;636.83;;
53915;SDS011;39827;49.652;18.770;2023-04-01T03:30:24;730.75;;;675.45;;
53915;SDS011;39827;49.652;18.770;2023-04-01T03:32:50;798.15;;;739.10;;
53915;SDS011;39827;49.652;18.770;2023-04-01T03:35:15;861.00;;;796.08;;
53915;SDS011;39827;49.652;18.770;2023-04-01T03:37:41;884.55;;;817.28;;
53915;SDS011;39827;49.652;18.770;2023-04-01T03:40:06;893.83;;;826.38;;
53915;SDS011;39827;49.652;18.770;2023-04-01T03:42:32;884.13;;;817.53;;
53915;SDS011;39827;49.652;18.770;2023-04-01T03:44:57;862.40;;;796.20;;
53915;SDS011;39827;49.652;18.770;2023-04-01T03:47:23;839.88;;;775.63;;
53915;SDS011;39827;49.652;18.770;2023-04-01T03:49:48;857.10;;;791.47;;
53915;SDS011;39827;49.652;18.770;2023-04-01T03:52:13;868.20;;;802.00;;
53915;SDS011;39827;49.652;18.770;2023-04-01T03:54:39;793.55;;;732.88;;
53915;SDS011;39827;49.652;18.770;2023-04-01T03:57:04;827.22;;;764.75;;
53915;SDS011;39827;49.652;18.770;2023-04-01T03:59:30;795.40;;;735.05;;
53915;SDS011;39827;49.652;18.770;2023-04-01T04:01:56;873.35;;;807.22;;
53915;SDS011;39827;49.652;18.770;2023-04-01T04:04:21;869.63;;;803.05;;
53915;SDS011;39827;49.652;18.770;2023-04-01T04:06:47;863.20;;;798.22;;
53915;SDS011;39827;49.652;18.770;2023-04-01T04:09:13;818.70;;;757.13;;
53915;SDS011;39827;49.652;18.770;2023-04-01T04:11:38;813.33;;;751.90;;
53915;SDS011;39827;49.652;18.770;2023-04-01T04:14:04;869.50;;;803.92;;
53915;SDS011;39827;49.652;18.770;2023-04-01T04:16:30;854.83;;;791.20;;
53915;SDS011;39827;49.652;18.770;2023-04-01T04:18:55;853.17;;;788.85;;
53915;SDS011;39827;49.652;18.770;2023-04-01T04:21:21;866.92;;;802.35;;
53915;SDS011;39827;49.652;18.770;2023-04-01T04:23:46;874.50;;;808.60;;
53915;SDS011;39827;49.652;18.770;2023-04-01T04:26:12;849.45;;;785.45;;
53915;SDS011;39827;49.652;18.770;2023-04-01T04:28:39;792.58;;;733.03;;
53915;SDS011;39827;49.652;18.770;2023-04-01T04:31:05;785.55;;;728.88;;
53915;SDS011;39827;49.652;18.770;2023-04-01T04:33:31;825.25;;;764.38;;
53915;SDS011;39827;49.652;18.770;2023-04-01T04:35:57;885.38;;;819.30;;
53915;SDS011;39827;49.652;18.770;2023-04-01T04:38:24;848.50;;;784.00;;
53915;SDS011;39827;49.652;18.770;2023-04-01T04:40:50;857.08;;;792.17;;
53915;SDS011;39827;49.652;18.770;2023-04-01T04:43:16;897.80;;;830.08;;
53915;SDS011;39827;49.652;18.770;2023-04-01T04:45:42;881.10;;;814.50;;
53915;SDS011;39827;49.652;18.770;2023-04-01T04:48:08;817.88;;;759.13;;
53915;SDS011;39827;49.652;18.770;2023-04-01T04:50:35;734.40;;;683.03;;
53915;SDS011;39827;49.652;18.770;2023-04-01T04:53:01;772.97;;;718.50;;
53915;SDS011;39827;49.652;18.770;2023-04-01T04:55:27;787.38;;;731.88;;
53915;SDS011;39827;49.652;18.770;2023-04-01T04:57:53;790.70;;;734.50;;
53915;SDS011;39827;49.652;18.770;2023-04-01T05:00:18;755.67;;;702.58;;
53915;SDS011;39827;49.652;18.770;2023-04-01T05:02:44;745.58;;;693.70;;
53915;SDS011;39827;49.652;18.770;2023-04-01T05:05:09;831.45;;;771.28;;
53915;SDS011;39827;49.652;18.770;2023-04-01T05:07:35;714.85;;;664.40;;
53915;SDS011;39827;49.652;18.770;2023-04-01T05:10:00;651.78;;;605.42;;
53915;SDS011;39827;49.652;18.770;2023-04-01T05:12:26;640.90;;;595.70;;
53915;SDS011;39827;49.652;18.770;2023-04-01T05:14:51;763.30;;;709.05;;
53915;SDS011;39827;49.652;18.770;2023-04-01T05:17:17;726.28;;;672.47;;
53915;SDS011;39827;49.652;18.770;2023-04-01T05:19:42;773.72;;;708.65;;
53915;SDS011;39827;49.652;18.770;2023-04-01T05:22:07;870.25;;;781.70;;
53915;SDS011;39827;49.652;18.770;2023-04-01T05:24:33;800.80;;;740.03;;
53915;SDS011;39827;49.652;18.770;2023-04-01T05:26:59;856.28;;;792.70;;
53915;SDS011;39827;49.652;18.770;2023-04-01T05:29:25;802.83;;;741.97;;
53915;SDS011;39827;49.652;18.770;2023-04-01T05:31:51;732.67;;;671.95;;
53915;SDS011;39827;49.652;18.770;2023-04-01T05:34:16;863.28;;;797.25;;
53915;SDS011;39827;49.652;18.770;2023-04-01T05:36:42;846.88;;;783.70;;
53915;SDS011;39827;49.652;18.770;2023-04-01T05:39:08;783.67;;;726.72;;
53915;SDS011;39827;49.652;18.770;2023-04-01T05:41:37;847.60;;;784.50;;
53915;SDS011;39827;49.652;18.770;2023-04-01T05:44:03;897.85;;;828.53;;
53915;SDS011;39827;49.652;18.770;2023-04-01T05:46:30;874.55;;;807.20;;
53915;SDS011;39827;49.652;18.770;2023-04-01T05:48:56;889.28;;;821.10;;
53915;SDS011;39827;49.652;18.770;2023-04-01T05:51:21;851.45;;;786.53;;
53915;SDS011;39827;49.652;18.770;2023-04-01T05:53:47;908.97;;;838.72;;
53915;SDS011;39827;49.652;18.770;2023-04-01T05:56:13;865.25;;;798.70;;
53915;SDS011;39827;49.652;18.770;2023-04-01T05:58:39;850.78;;;786.78;;
53915;SDS011;39827;49.652;18.770;2023-04-01T06:01:07;801.92;;;741.28;;
53915;SDS011;39827;49.652;18.770;2023-04-01T06:03:35;765.83;;;708.90;;
53915;SDS011;39827;49.652;18.770;2023-04-01T06:06:01;756.00;;;699.20;;
53915;SDS011;39827;49.652;18.770;2023-04-01T06:08:27;876.72;;;809.65;;
53915;SDS011;39827;49.652;18.770;2023-04-01T06:16:21;859.10;;;793.50;;
53915;SDS011;39827;49.652;18.770;2023-04-01T06:21:47;819.22;;;758.20;;
53915;SDS011;39827;49.652;18.770;2023-04-01T06:24:38;860.00;;;794.92;;
53915;SDS011;39827;49.652;18.770;2023-04-01T06:30:29;831.63;;;769.13;;
53915;SDS011;39827;49.652;18.770;2023-04-01T06:35:34;810.85;;;749.78;;
53915;SDS011;39827;49.652;18.770;2023-04-01T06:38:07;822.90;;;760.95;;
53915;SDS011;39827;49.652;18.770;2023-04-01T06:54:39;688.28;;;637.03;;
53915;SDS011;39827;49.652;18.770;2023-04-01T06:57:32;681.45;;;630.45;;
53915;SDS011;39827;49.652;18.770;2023-04-01T07:00:02;774.22;;;716.95;;
53915;SDS011;39827;49.652;18.770;2023-04-01T07:04:55;798.70;;;738.50;;
53915;SDS011;39827;49.652;18.770;2023-04-01T07:07:32;740.58;;;683.50;;
53915;SDS011;39827;49.652;18.770;2023-04-01T07:13:18;751.53;;;695.60;;
53915;SDS011;39827;49.652;18.770;2023-04-01T07:18:50;796.72;;;737.22;;
53915;SDS011;39827;49.652;18.770;2023-04-01T07:21:29;880.30;;;812.95;;
53915;SDS011;39827;49.652;18.770;2023-04-01T07:24:24;874.40;;;807.42;;
53915;SDS011;39827;49.652;18.770;2023-04-01T07:26:52;880.65;;;814.42;;
53915;SDS011;39827;49.652;18.770;2023-04-01T07:29:21;901.55;;;832.13;;
53915;SDS011;39827;49.652;18.770;2023-04-01T07:31:54;865.58;;;800.10;;
53915;SDS011;39827;49.652;18.770;2023-04-01T07:51:14;826.05;;;762.97;;
53915;SDS011;39827;49.652;18.770;2023-04-01T07:53:46;723.20;;;668.05;;
53915;SDS011;39827;49.652;18.770;2023-04-01T08:01:32;775.28;;;716.72;;
53915;SDS011;39827;49.652;18.770;2023-04-01T08:06:54;802.78;;;742.90;;
53915;SDS011;39827;49.652;18.770;2023-04-01T08:17:32;815.97;;;754.20;;
53915;SDS011;39827;49.652;18.770;2023-04-01T08:20:26;855.08;;;790.53;;
53915;SDS011;39827;49.652;18.770;2023-04-01T08:23:21;871.83;;;805.50;;
53915;SDS011;39827;49.652;18.770;2023-04-01T08:25:51;841.00;;;777.20;;
53915;SDS011;39827;49.652;18.770;2023-04-01T08:33:53;789.35;;;730.05;;
53915;SDS011;39827;49.652;18.770;2023-04-01T08:36:33;754.72;;;698.50;;
53915;SDS011;39827;49.652;18.770;2023-04-01T09:00:45;833.78;;;770.80;;
53915;SDS011;39827;49.652;18.770;2023-04-01T09:14:38;829.67;;;767.03;;
53915;SDS011;39827;49.652;18.770;2023-04-01T09:57:43;878.53;;;811.92;;
53915;SDS011;39827;49.652;18.770;2023-04-01T10:00:28;833.38;;;772.22;;
53915;SDS011;39827;49.652;18.770;2023-04-01T10:03:16;857.15;;;792.72;;
53915;SDS011;39827;49.652;18.770;2023-04-01T10:09:12;709.22;;;658.53;;
53915;SDS011;39827;49.652;18.770;2023-04-01T10:31:18;825.22;;;765.13;;
53915;SDS011;39827;49.652;18.770;2023-04-01T10:36:58;836.85;;;775.72;;
53915;SDS011;39827;49.652;18.770;2023-04-01T10:51:21;889.30;;;821.08;;
53915;SDS011;39827;49.652;18.770;2023-04-01T11:32:09;861.65;;;796.45;;
53915;SDS011;39827;49.652;18.770;2023-04-01T11:41:26;861.13;;;796.25;;
53915;SDS011;39827;49.652;18.770;2023-04-01T12:01:25;517.28;;;475.13;;
53915;SDS011;39827;49.652;18.770;2023-04-01T12:07:01;432.63;;;396.15;;
53915;SDS011;39827;49.652;18.770;2023-04-01T12:17:48;317.42;;;294.73;;
53915;SDS011;39827;49.652;18.770;2023-04-01T12:26:00;317.77;;;294.70;;
53915;SDS011;39827;49.652;18.770;2023-04-01T12:31:31;374.92;;;347.30;;
53915;SDS011;39827;49.652;18.770;2023-04-01T12:39:29;450.77;;;413.05;;
53915;SDS011;39827;49.652;18.770;2023-04-01T12:44:47;489.25;;;447.65;;
53915;SDS011;39827;49.652;18.770;2023-04-01T12:47:29;537.20;;;493.10;;
53915;SDS011;39827;49.652;18.770;2023-04-01T13:25:13;833.85;;;770.65;;
53915;SDS011;39827;49.652;18.770;2023-04-01T13:28:01;730.17;;;677.92;;
53915;SDS011;39827;49.652;18.770;2023-04-01T13:44:48;675.35;;;626.45;;
53915;SDS011;39827;49.652;18.770;2023-04-01T13:47:24;692.55;;;643.63;;
53915;SDS011;39827;49.652;18.770;2023-04-01T13:49:56;777.92;;;720.58;;
53915;SDS011;39827;49.652;18.770;2023-04-01T13:52:48;811.20;;;748.65;;
53915;SDS011;39827;49.652;18.770;2023-04-01T14:01:10;715.88;;;660.85;;
53915;SDS011;39827;49.652;18.770;2023-04-01T14:20:29;738.15;;;682.63;;
53915;SDS011;39827;49.652;18.770;2023-04-01T14:23:07;793.10;;;733.85;;
53915;SDS011;39827;49.652;18.770;2023-04-01T14:25:58;699.70;;;645.58;;
53915;SDS011;39827;49.652;18.770;2023-04-01T14:39:38;244.10;;;227.13;;
53915;SDS011;39827;49.652;18.770;2023-04-01T14:42:32;436.20;;;399.95;;
53915;SDS011;39827;49.652;18.770;2023-04-01T14:50:20;276.27;;;256.73;;
53915;SDS011;39827;49.652;18.770;2023-04-01T14:52:59;230.57;;;215.05;;
53915;SDS011;39827;49.652;18.770;2023-04-01T14:58:15;205.80;;;192.07;;
53915;SDS011;39827;49.652;18.770;2023-04-01T15:14:16;200.80;;;188.27;;
53915;SDS011;39827;49.652;18.770;2023-04-01T15:17:05;249.55;;;233.15;;
53915;SDS011;39827;49.652;18.770;2023-04-01T15:19:50;274.60;;;256.13;;
53915;SDS011;39827;49.652;18.770;2023-04-01T15:31:25;274.23;;;254.93;;
53915;SDS011;39827;49.652;18.770;2023-04-01T15:40:27;144.93;;;134.60;;
53915;SDS011;39827;49.652;18.770;2023-04-01T15:50:54;118.60;;;110.18;;
53915;SDS011;39827;49.652;18.770;2023-04-01T15:53:49;122.95;;;113.70;;
53915;SDS011;39827;49.652;18.770;2023-04-01T15:56:22;122.65;;;113.97;;
53915;SDS011;39827;49.652;18.770;2023-04-01T15:59:06;135.05;;;125.90;;
53915;SDS011;39827;49.652;18.770;2023-04-01T16:02:18;163.00;;;152.30;;
53915;SDS011;39827;49.652;18.770;2023-04-01T16:04:59;150.57;;;141.35;;
53915;SDS011;39827;49.652;18.770;2023-04-01T16:08:09;154.93;;;145.32;;
53915;SDS011;39827;49.652;18.770;2023-04-01T16:13:03;130.63;;;122.03;;
53915;SDS011;39827;49.652;18.770;2023-04-01T16:15:37;123.88;;;115.75;;
53915;SDS011;39827;49.652;18.770;2023-04-01T16:20:57;133.63;;;123.95;;
53915;SDS011;39827;49.652;18.770;2023-04-01T16:29:06;145.85;;;134.55;;
53915;SDS011;39827;49.652;18.770;2023-04-01T16:32:15;119.55;;;110.55;;
53915;SDS011;39827;49.652;18.770;2023-04-01T16:37:34;192.43;;;176.73;;
53915;SDS011;39827;49.652;18.770;2023-04-01T16:45:17;177.15;;;162.65;;
53915;SDS011;39827;49.652;18.770;2023-04-01T16:47:51;208.50;;;191.13;;
53915;SDS011;39827;49.652;18.770;2023-04-01T16:50:22;193.10;;;177.02;;
53915;SDS011;39827;49.652;18.770;2023-04-01T16:55:25;298.05;;;272.65;;
53915;SDS011;39827;49.652;18.770;2023-04-01T16:58:01;192.57;;;177.00;;
53915;SDS011;39827;49.652;18.770;2023-04-01T17:00:30;295.75;;;271.30;;
53915;SDS011;39827;49.652;18.770;2023-04-01T17:08:24;304.35;;;279.52;;
53915;SDS011;39827;49.652;18.770;2023-04-01T17:11:22;324.92;;;298.75;;
53915;SDS011;39827;49.652;18.770;2023-04-01T17:30:11;455.95;;;420.50;;
53915;SDS011;39827;49.652;18.770;2023-04-01T17:40:34;578.78;;;531.92;;
53915;SDS011;39827;49.652;18.770;2023-04-01T17:59:33;689.70;;;637.65;;
53915;SDS011;39827;49.652;18.770;2023-04-01T18:19:04;584.08;;;538.50;;
53915;SDS011;39827;49.652;18.770;2023-04-01T18:21:46;538.42;;;496.73;;
53915;SDS011;39827;49.652;18.770;2023-04-01T18:27:28;523.05;;;482.20;;
53915;SDS011;39827;49.652;18.770;2023-04-01T18:30:20;593.55;;;547.10;;
53915;SDS011;39827;49.652;18.770;2023-04-01T18:33:04;546.20;;;503.67;;
53915;SDS011;39827;49.652;18.770;2023-04-01T18:49:30;620.30;;;572.42;;
53915;SDS011;39827;49.652;18.770;2023-04-01T18:52:17;541.33;;;499.27;;
53915;SDS011;39827;49.652;18.770;2023-04-01T18:54:45;578.35;;;533.47;;
53915;SDS011;39827;49.652;18.770;2023-04-01T18:57:13;674.92;;;622.42;;
53915;SDS011;39827;49.652;18.770;2023-04-01T18:59:56;654.15;;;603.20;;
53915;SDS011;39827;49.652;18.770;2023-04-01T19:05:17;612.25;;;566.72;;
53915;SDS011;39827;49.652;18.770;2023-04-01T19:07:48;721.65;;;670.15;;
53915;SDS011;39827;49.652;18.770;2023-04-01T19:10:37;762.78;;;708.50;;
53915;SDS011;39827;49.652;18.770;2023-04-01T19:13:32;747.38;;;693.28;;
53915;SDS011;39827;49.652;18.770;2023-04-01T19:21:29;740.17;;;685.65;;
53915;SDS011;39827;49.652;18.770;2023-04-01T19:32:33;783.10;;;725.08;;
53915;SDS011;39827;49.652;18.770;2023-04-01T19:40:48;712.47;;;659.70;;
53915;SDS011;39827;49.652;18.770;2023-04-01T19:43:28;676.33;;;626.67;;
53915;SDS011;39827;49.652;18.770;2023-04-01T19:46:01;574.47;;;531.45;;
53915;SDS011;39827;49.652;18.770;2023-04-01T19:57:34;569.88;;;527.65;;
53915;SDS011;39827;49.652;18.770;2023-04-01T20:03:03;548.60;;;507.85;;
53915;SDS011;39827;49.652;18.770;2023-04-01T20:08:00;505.80;;;467.92;;
53915;SDS011;39827;49.652;18.770;2023-04-01T20:10:42;542.03;;;500.70;;
53915;SDS011;39827;49.652;18.770;2023-04-01T20:16:21;626.80;;;579.33;;
53915;SDS011;39827;49.652;18.770;2023-04-01T20:18:57;448.58;;;414.20;;
53915;SDS011;39827;49.652;18.770;2023-04-01T20:23:58;448.63;;;413.70;;
53915;SDS011;39827;49.652;18.770;2023-04-01T20:26:33;482.35;;;444.63;;
53915;SDS011;39827;49.652;18.770;2023-04-01T20:29:23;533.35;;;493.23;;
53915;SDS011;39827;49.652;18.770;2023-04-01T20:37:42;490.98;;;453.08;;
53915;SDS011;39827;49.652;18.770;2023-04-01T20:40:46;395.42;;;368.15;;
53915;SDS011;39827;49.652;18.770;2023-04-01T20:43:35;434.85;;;404.40;;
53915;SDS011;39827;49.652;18.770;2023-04-01T20:46:20;378.08;;;352.48;;
53915;SDS011;39827;49.652;18.770;2023-04-01T20:51:22;334.05;;;311.25;;
53915;SDS011;39827;49.652;18.770;2023-04-01T20:54:05;434.80;;;403.23;;
53915;SDS011;39827;49.652;18.770;2023-04-01T20:56:51;406.17;;;377.50;;
53915;SDS011;39827;49.652;18.770;2023-04-01T21:19:46;525.67;;;486.40;;
53915;SDS011;39827;49.652;18.770;2023-04-01T21:22:47;689.95;;;639.33;;
53915;SDS011;39827;49.652;18.770;2023-04-01T21:26:04;538.78;;;498.85;;
53915;SDS011;39827;49.652;18.770;2023-04-01T21:33:43;505.17;;;467.75;;
53915;SDS011;39827;49.652;18.770;2023-04-01T21:36:18;515.58;;;477.25;;
53915;SDS011;39827;49.652;18.770;2023-04-01T21:39:37;473.60;;;437.83;;
53915;SDS011;39827;49.652;18.770;2023-04-01T21:55:44;535.42;;;494.90;;
53915;SDS011;39827;49.652;18.770;2023-04-01T22:07:09;529.70;;;486.90;;
53915;SDS011;39827;49.652;18.770;2023-04-01T22:09:38;559.13;;;514.03;;
53915;SDS011;39827;49.652;18.770;2023-04-01T22:12:30;549.17;;;502.77;;
53915;SDS011;39827;49.652;18.770;2023-04-01T22:15:45;676.22;;;620.70;;
53915;SDS011;39827;49.652;18.770;2023-04-01T22:27:01;526.13;;;481.30;;
53915;SDS011;39827;49.652;18.770;2023-04-01T22:32:24;729.63;;;673.55;;
53915;SDS011;39827;49.652;18.770;2023-04-01T22:35:09;602.05;;;555.08;;
53915;SDS011;39827;49.652;18.770;2023-04-01T22:38:02;609.55;;;561.75;;
53915;SDS011;39827;49.652;18.770;2023-04-01T22:43:38;675.35;;;624.05;;
53915;SDS011;39827;49.652;18.770;2023-04-01T22:48:47;615.10;;;569.25;;
53915;SDS011;39827;49.652;18.770;2023-04-01T22:56:22;504.35;;;462.70;;
53915;SDS011;39827;49.652;18.770;2023-04-01T23:01:49;759.25;;;701.72;;
53915;SDS011;39827;49.652;18.770;2023-04-01T23:04:21;720.92;;;665.28;;
53915;SDS011;39827;49.652;18.770;2023-04-01T23:06:52;630.67;;;579.58;;
53915;SDS011;39827;49.652;18.770;2023-04-01T23:09:29;544.55;;;501.92;;
53915;SDS011;39827;49.652;18.770;2023-04-01T23:11:59;477.98;;;438.55;;
53915;SDS011;39827;49.652;18.770;2023-04-01T23:14:35;534.97;;;489.98;;
53915;SDS011;39827;49.652;18.770;2023-04-01T23:17:07;649.47;;;595.45;;
53915;SDS011;39827;49.652;18.770;2023-04-01T23:22:30;566.53;;;519.33;;
53915;SDS011;39827;49.652;18.770;2023-04-01T23:27:38;652.85;;;599.85;;
53915;SDS011;39827;49.652;18.770;2023-04-01T23:35:57;806.45;;;746.78;;
53915;SDS011;39827;49.652;18.770;2023-04-01T23:38:31;729.38;;;676.20;;
53915;SDS011;39827;49.652;18.770;2023-04-01T23:41:01;746.08;;;690.40;;
53915;SDS011;39827;49.652;18.770;2023-04-01T23:43:29;745.55;;;690.22;;
53915;SDS011;39827;49.652;18.770;2023-04-01T23:45:57;701.72;;;646.78;;
53915;SDS011;39827;49.652;18.770;2023-04-01T23:48:30;563.35;;;517.15;;
53915;SDS011;39827;49.652;18.770;2023-04-01T23:51:36;537.95;;;494.88;;
53915;SDS011;39827;49.652;18.770;2023-04-01T23:56:41;740.22;;;681.13;;
53915;SDS011;39827;49.652;18.770;2023-04-01T23:59:14;827.25;;;761.95;;
